»·PEaware :: N7886N KSEA-KPAE

N7886N :: KSEA-KPAE

FLIGHT INFORMATION

Flight Status: Arrived
Operator: Privately registered:
United States
More flights under this callsign
Pilot: Lake Area Tech (24716)
Aircraft: CESSNA 172 SKYHAWK
(C172)
More flights by this aircraft type
Origin: KSEA Seattle-Tacoma Intl
United States
Destination: KPAE Paine Field/Snohomish Co.
United States
More flights between these airports :: More routes between these airports
Route: SEA7 PAE
File this flight plan on PilotEdge
Remarks:
Altitude:
(Current/Filed)
5,000ft
Speed:
(Current/Filed)
110kts
Departed: 10-Feb-21 02:25 PM
Arrived: 10-Feb-21 03:02 PM
Distance/Time
Traveled:
27nm/0:36
Distance/Time
To Go:
Arrived

Flight Plot

Page will automatically refresh every two minutes.

Flight plan parsing failed; only flown route is shown


Map Options




Map Legend


Flown Route
Filed Route
Departure Airport
Arrival Airport
Navaid (VOR, NDB)
Fix

Horizontal Profiles

Position Reports

Time Latitude Longitude Heading Altitude Ground
Speed
10-Feb-21 14:03 47.438911 -122.315209 9 437ft 0kts
10-Feb-21 14:04 47.438911 -122.315209 9 437ft 0kts
10-Feb-21 14:05 47.438911 -122.315209 9 437ft 0kts
10-Feb-21 14:06 47.438911 -122.315209 9 437ft 0kts
10-Feb-21 14:07 47.438911 -122.315209 9 437ft 0kts
10-Feb-21 14:08 47.438911 -122.315209 9 437ft 0kts
10-Feb-21 14:09 47.438911 -122.315209 9 437ft 0kts
10-Feb-21 14:10 47.438911 -122.315209 9 437ft 0kts
10-Feb-21 14:11 47.438911 -122.315209 9 437ft 0kts
10-Feb-21 14:12 47.438911 -122.315209 9 437ft 0kts
10-Feb-21 14:13 47.438911 -122.315209 9 437ft 0kts
10-Feb-21 14:14 47.438911 -122.315209 9 437ft 0kts
10-Feb-21 14:15 47.438911 -122.315209 9 437ft 0kts
10-Feb-21 14:16 47.438911 -122.315209 9 437ft 0kts
10-Feb-21 14:17 47.440294 -122.313610 357 437ft 12kts
10-Feb-21 14:18 47.444322 -122.313581 0 437ft 16kts
10-Feb-21 14:19 47.449617 -122.313500 0 437ft 18kts
10-Feb-21 14:20 47.454594 -122.313482 358 437ft 20kts
10-Feb-21 14:21 47.461216 -122.313419 0 437ft 21kts
10-Feb-21 14:22 47.463697 -122.315812 279 437ft 13kts
10-Feb-21 14:23 47.463731 -122.316550 285 437ft 0kts
10-Feb-21 14:24 47.457441 -122.318082 180 465ft 86kts
10-Feb-21 14:25 47.429232 -122.313881 171 1517ft 110kts
10-Feb-21 14:26 47.397278 -122.311380 209 2471ft 118kts
10-Feb-21 14:27 47.397464 -122.353630 285 3609ft 109kts
10-Feb-21 14:28 47.406441 -122.400821 284 4036ft 120kts
10-Feb-21 14:29 47.415275 -122.448083 286 3995ft 118kts
10-Feb-21 14:31 47.440251 -122.471261 345 4034ft 114kts
10-Feb-21 14:32 47.471459 -122.483509 344 4049ft 118kts
10-Feb-21 14:33 47.503163 -122.495802 345 4091ft 117kts
10-Feb-21 14:34 47.535549 -122.508518 346 4017ft 123kts
10-Feb-21 14:35 47.568330 -122.518358 5 4038ft 118kts
10-Feb-21 14:36 47.600981 -122.513664 6 4067ft 118kts
10-Feb-21 14:37 47.634185 -122.508764 6 4044ft 120kts
10-Feb-21 14:38 47.667061 -122.504118 5 4042ft 123kts
10-Feb-21 14:39 47.700814 -122.499607 4 4065ft 118kts
10-Feb-21 14:40 47.733582 -122.495023 5 4098ft 118kts
10-Feb-21 14:41 47.766748 -122.490199 5 4079ft 121kts
10-Feb-21 14:42 47.799604 -122.485443 6 4023ft 117kts
10-Feb-21 14:43 47.831878 -122.481229 5 4035ft 116kts
10-Feb-21 14:44 47.864462 -122.476777 5 3790ft 118kts
10-Feb-21 14:45 47.897693 -122.471864 6 3262ft 121kts
10-Feb-21 14:46 47.930555 -122.466908 5 3019ft 116kts
10-Feb-21 14:46 47.957432 -122.463660 5 3022ft 116kts
10-Feb-21 14:48 47.993083 -122.449480 27 3032ft 116kts
10-Feb-21 14:48 48.017545 -122.432172 26 3018ft 117kts
10-Feb-21 14:49 48.046588 -122.411222 26 3033ft 116kts
10-Feb-21 14:51 48.080669 -122.387174 25 3047ft 116kts
10-Feb-21 14:51 48.104915 -122.369541 28 3042ft 117kts
10-Feb-21 14:52 48.118657 -122.329907 84 3030ft 115kts
10-Feb-21 14:53 48.101105 -122.295333 163 2868ft 115kts
10-Feb-21 14:54 48.070778 -122.289735 179 2487ft 110kts
10-Feb-21 14:55 48.040034 -122.289637 178 2547ft 106kts
10-Feb-21 14:56 48.012430 -122.288451 180 2390ft 94kts
10-Feb-21 14:57 47.987603 -122.287310 177 1895ft 86kts
10-Feb-21 14:58 47.961906 -122.286884 182 1442ft 97kts
10-Feb-21 14:59 47.935897 -122.286281 178 918ft 88kts
10-Feb-21 15:00 47.913222 -122.285619 180 608ft 57kts
10-Feb-21 15:01 47.908673 -122.284162 123 608ft 0kts
10-Feb-21 15:02 47.907557 -122.282518 92 608ft 12kts
10-Feb-21 15:03 47.905629 -122.278591 137 608ft 11kts

Navigation Log

Ident Type
Flight plan parsing failed, navigation log unavailable